sensor_id;sensor_type;location;lat;lon;timestamp;pressure;altitude;pressure_sealevel;temperature;humidity
12073;BME280;6098;49.004;8.372;2022-11-11T00:11:50;101873.84;;;8.81;92.35
12073;BME280;6098;49.004;8.372;2022-11-11T00:26:40;101865.27;;;8.50;93.56
12073;BME280;6098;49.004;8.372;2022-11-11T00:41:31;101871.92;;;8.45;94.21
12073;BME280;6098;49.004;8.372;2022-11-11T00:56:22;101889.62;;;8.29;94.68
12073;BME280;6098;49.004;8.372;2022-11-11T01:11:13;101901.95;;;8.29;97.40
12073;BME280;6098;49.004;8.372;2022-11-11T01:26:06;101902.43;;;8.14;95.34
12073;BME280;6098;49.004;8.372;2022-11-11T01:40:59;101914.36;;;8.05;96.26
12073;BME280;6098;49.004;8.372;2022-11-11T01:55:49;101910.42;;;7.99;96.21
12073;BME280;6098;49.004;8.372;2022-11-11T02:10:42;101922.35;;;7.87;95.56
12073;BME280;6098;49.004;8.372;2022-11-11T02:25:31;101910.47;;;7.80;95.58
12073;BME280;6098;49.004;8.372;2022-11-11T02:40:24;101898.19;;;7.70;93.13
12073;BME280;6098;49.004;8.372;2022-11-11T02:55:13;101900.89;;;7.43;93.31
12073;BME280;6098;49.004;8.372;2022-11-11T03:25:30;101896.98;;;7.19;96.41
12073;BME280;6098;49.004;8.372;2022-11-11T03:40:32;101927.31;;;7.13;96.01
12073;BME280;6098;49.004;8.372;2022-11-11T03:55:22;101952.77;;;7.01;98.12
12073;BME280;6098;49.004;8.372;2022-11-11T04:10:13;101976.50;;;7.08;98.26
12073;BME280;6098;49.004;8.372;2022-11-11T04:25:18;101982.23;;;7.14;100.00
12073;BME280;6098;49.004;8.372;2022-11-11T04:40:33;101990.59;;;7.26;100.00
12073;BME280;6098;49.004;8.372;2022-11-11T04:55:49;102003.79;;;7.30;100.00
12073;BME280;6098;49.004;8.372;2022-11-11T05:11:05;102023.98;;;7.23;100.00
12073;BME280;6098;49.004;8.372;2022-11-11T05:26:11;102048.19;;;7.23;100.00
12073;BME280;6098;49.004;8.372;2022-11-11T05:41:18;102050.81;;;7.26;100.00
12073;BME280;6098;49.004;8.372;2022-11-11T05:56:15;102060.50;;;7.26;100.00
12073;BME280;6098;49.004;8.372;2022-11-11T06:11:15;102063.98;;;7.20;100.00
12073;BME280;6098;49.004;8.372;2022-11-11T06:26:05;102078.47;;;7.08;100.00
12073;BME280;6098;49.004;8.372;2022-11-11T06:41:05;102094.31;;;7.08;100.00
12073;BME280;6098;49.004;8.372;2022-11-11T06:55:56;102091.20;;;7.08;99.43
12073;BME280;6098;49.004;8.372;2022-11-11T07:10:47;102104.37;;;6.99;98.27
12073;BME280;6098;49.004;8.372;2022-11-11T07:25:36;102115.34;;;6.97;97.23
12073;BME280;6098;49.004;8.372;2022-11-11T07:40:27;102113.16;;;6.97;96.88
12073;BME280;6098;49.004;8.372;2022-11-11T07:55:18;102122.00;;;7.06;96.90
12073;BME280;6098;49.004;8.372;2022-11-11T08:10:10;102127.28;;;7.14;96.51
12073;BME280;6098;49.004;8.372;2022-11-11T08:25:01;102126.86;;;7.23;97.11
12073;BME280;6098;49.004;8.372;2022-11-11T08:39:52;102120.73;;;7.35;96.91
12073;BME280;6098;49.004;8.372;2022-11-11T08:54:43;102122.09;;;7.45;96.18
12073;BME280;6098;49.004;8.372;2022-11-11T09:09:34;102126.95;;;7.59;96.27
12073;BME280;6098;49.004;8.372;2022-11-11T09:24:25;102122.54;;;7.61;95.75
12073;BME280;6098;49.004;8.372;2022-11-11T09:39:17;102113.33;;;8.00;94.63
12073;BME280;6098;49.004;8.372;2022-11-11T09:54:10;102128.72;;;8.11;93.43
12073;BME280;6098;49.004;8.372;2022-11-11T10:09:00;102132.70;;;8.32;93.82
12073;BME280;6098;49.004;8.372;2022-11-11T10:23:51;102129.13;;;8.42;95.04
12073;BME280;6098;49.004;8.372;2022-11-11T10:39:00;102131.77;;;8.54;94.50
12073;BME280;6098;49.004;8.372;2022-11-11T11:08:58;102102.55;;;8.90;94.63
12073;BME280;6098;49.004;8.372;2022-11-11T11:23:49;102104.27;;;9.00;93.29
12073;BME280;6098;49.004;8.372;2022-11-11T11:38:41;102077.33;;;9.06;94.07
12073;BME280;6098;49.004;8.372;2022-11-11T12:09:08;102065.75;;;9.25;94.13
12073;BME280;6098;49.004;8.372;2022-11-11T12:24:10;102075.78;;;9.42;93.47
12073;BME280;6098;49.004;8.372;2022-11-11T13:25:21;102074.69;;;9.68;93.66
12073;BME280;6098;49.004;8.372;2022-11-11T13:40:34;102071.14;;;9.69;94.58
12073;BME280;6098;49.004;8.372;2022-11-11T13:55:39;102059.20;;;9.72;95.22
12073;BME280;6098;49.004;8.372;2022-11-11T14:25:26;102083.98;;;9.64;96.70
12073;BME280;6098;49.004;8.372;2022-11-11T14:40:29;102078.69;;;9.67;97.44
12073;BME280;6098;49.004;8.372;2022-11-11T14:55:34;102068.17;;;9.58;98.01
12073;BME280;6098;49.004;8.372;2022-11-11T15:10:34;102065.11;;;9.51;98.60
12073;BME280;6098;49.004;8.372;2022-11-11T15:40:26;102086.01;;;9.32;100.00
12073;BME280;6098;49.004;8.372;2022-11-11T16:10:25;102064.09;;;9.08;100.00
12073;BME280;6098;49.004;8.372;2022-11-11T16:40:39;102090.58;;;9.03;100.00
12073;BME280;6098;49.004;8.372;2022-11-11T16:55:45;102078.27;;;8.98;100.00
12073;BME280;6098;49.004;8.372;2022-11-11T17:10:45;102059.75;;;8.98;100.00
12073;BME280;6098;49.004;8.372;2022-11-11T17:25:56;102062.81;;;8.98;100.00
12073;BME280;6098;49.004;8.372;2022-11-11T17:40:52;102079.60;;;8.93;100.00
12073;BME280;6098;49.004;8.372;2022-11-11T17:55:42;102062.40;;;8.92;100.00
12073;BME280;6098;49.004;8.372;2022-11-11T18:10:33;102070.81;;;8.85;100.00
12073;BME280;6098;49.004;8.372;2022-11-11T18:25:27;102089.74;;;8.91;100.00
12073;BME280;6098;49.004;8.372;2022-11-11T18:40:18;102080.05;;;8.90;100.00
12073;BME280;6098;49.004;8.372;2022-11-11T18:55:09;102073.45;;;8.90;100.00
12073;BME280;6098;49.004;8.372;2022-11-11T19:10:01;102081.42;;;8.84;100.00
12073;BME280;6098;49.004;8.372;2022-11-11T19:24:52;102083.64;;;8.80;100.00
12073;BME280;6098;49.004;8.372;2022-11-11T19:39:56;102085.86;;;8.74;100.00
12073;BME280;6098;49.004;8.372;2022-11-11T20:09:59;102102.16;;;8.70;100.00
12073;BME280;6098;49.004;8.372;2022-11-11T20:25:09;102117.19;;;8.65;100.00
12073;BME280;6098;49.004;8.372;2022-11-11T20:40:00;102116.74;;;8.63;100.00
12073;BME280;6098;49.004;8.372;2022-11-11T20:54:56;102128.20;;;8.60;100.00
12073;BME280;6098;49.004;8.372;2022-11-11T21:09:49;102112.34;;;8.61;100.00
12073;BME280;6098;49.004;8.372;2022-11-11T21:24:40;102115.44;;;8.60;100.00
12073;BME280;6098;49.004;8.372;2022-11-11T21:39:32;102108.83;;;8.61;100.00
12073;BME280;6098;49.004;8.372;2022-11-11T21:54:23;102097.38;;;8.64;100.00
12073;BME280;6098;49.004;8.372;2022-11-11T22:09:15;102083.70;;;8.68;100.00
12073;BME280;6098;49.004;8.372;2022-11-11T22:24:08;102076.64;;;8.65;100.00
12073;BME280;6098;49.004;8.372;2022-11-11T22:38:59;102078.81;;;8.72;100.00
